createdAt,value
2022-08-17T00:01:56.373Z,21.45
2022-08-17T00:04:23.136Z,22.00
2022-08-17T00:06:50.397Z,22.33
2022-08-17T00:09:19.026Z,22.33
2022-08-17T00:12:03.900Z,21.92
2022-08-17T00:14:33.563Z,21.92
2022-08-17T00:16:59.996Z,22.35
2022-08-17T00:19:26.824Z,22.27
2022-08-17T00:22:32.214Z,23.35
2022-08-17T00:24:42.455Z,22.58
2022-08-17T00:27:08.892Z,21.40
2022-08-17T00:29:35.325Z,22.08
2022-08-17T00:33:12.019Z,20.90
2022-08-17T00:34:48.608Z,22.02
2022-08-17T00:37:15.049Z,20.83
2022-08-17T00:39:41.652Z,21.33
2022-08-17T00:42:18.139Z,21.67
2022-08-17T00:44:44.819Z,20.33
2022-08-17T00:47:11.245Z,22.07
2022-08-17T00:49:37.708Z,21.98
2022-08-17T00:52:11.988Z,21.30
2022-08-17T00:54:41.050Z,21.70
2022-08-17T00:57:11.138Z,20.77
2022-08-17T00:59:39.116Z,21.25
2022-08-17T01:02:06.290Z,20.90
2022-08-17T01:04:33.426Z,20.33
2022-08-17T01:07:01.533Z,21.95
2022-08-17T01:09:28.002Z,21.25
2022-08-17T01:11:54.432Z,21.75
2022-08-17T01:14:24.888Z,21.13
2022-08-17T01:16:52.573Z,21.75
2022-08-17T01:19:20.928Z,20.08
2022-08-17T01:21:50.680Z,18.23
2022-08-17T01:24:17.604Z,18.65
2022-08-17T01:26:44.681Z,18.10
2022-08-17T01:29:11.919Z,18.98
2022-08-17T01:31:40.067Z,17.63
2022-08-17T01:34:09.127Z,18.65
2022-08-17T01:36:39.843Z,18.13
2022-08-17T01:39:08.366Z,18.42
2022-08-17T01:41:35.459Z,18.02
2022-08-17T01:44:03.033Z,19.38
2022-08-17T01:48:56.345Z,19.13
2022-08-17T01:51:23.352Z,19.10
2022-08-17T01:53:51.745Z,18.45
2022-08-17T01:56:19.600Z,19.38
2022-08-17T01:58:46.696Z,19.17
2022-08-17T02:01:14.754Z,21.02
2022-08-17T02:03:41.996Z,19.58
2022-08-17T02:06:27.125Z,20.10
2022-08-17T02:09:03.093Z,19.30
2022-08-17T02:11:31.351Z,19.33
2022-08-17T02:14:02.825Z,19.77
2022-08-17T02:16:37.125Z,20.75
2022-08-17T02:19:06.000Z,20.33
2022-08-17T02:21:32.556Z,19.70
2022-08-17T02:23:59.284Z,20.53
2022-08-17T02:26:26.771Z,21.70
2022-08-17T02:28:53.625Z,20.02
2022-08-17T02:31:21.291Z,21.70
2022-08-17T02:33:47.758Z,21.13
2022-08-17T02:36:30.010Z,22.42
2022-08-17T02:38:57.048Z,22.10
2022-08-17T02:41:23.502Z,21.23
2022-08-17T02:43:49.981Z,22.77
2022-08-17T02:46:16.426Z,21.83
2022-08-17T02:48:42.907Z,21.55
2022-08-17T02:51:09.431Z,22.75
2022-08-17T02:53:36.316Z,23.98
2022-08-17T02:56:02.924Z,23.58
2022-08-17T02:58:35.115Z,22.52
2022-08-17T03:01:03.349Z,21.80
2022-08-17T03:03:29.885Z,23.77
2022-08-17T03:05:56.399Z,23.98
2022-08-17T03:08:23.404Z,23.77
2022-08-17T03:10:50.537Z,23.83
2022-08-17T03:13:17.479Z,23.33
2022-08-17T03:15:45.276Z,23.83
2022-08-17T03:18:24.513Z,24.67
2022-08-17T03:20:52.993Z,24.42
2022-08-17T03:23:23.659Z,24.45
2022-08-17T03:25:52.756Z,24.58
2022-08-17T03:28:20.249Z,24.23
2022-08-17T03:30:46.787Z,25.67
2022-08-17T03:33:13.303Z,24.88
2022-08-17T03:35:40.422Z,25.15
2022-08-17T03:38:07.648Z,25.02
2022-08-17T03:40:55.260Z,26.05
2022-08-17T03:43:21.318Z,24.98
2022-08-17T03:46:34.190Z,25.70
2022-08-17T03:49:20.417Z,25.10
2022-08-17T03:52:05.226Z,25.55
2022-08-17T03:54:50.130Z,26.00
2022-08-17T03:57:16.720Z,25.85
2022-08-17T03:59:43.518Z,26.17
2022-08-17T04:02:14.308Z,26.02
2022-08-17T04:04:40.771Z,26.80
2022-08-17T04:07:07.562Z,24.60
2022-08-17T04:09:34.375Z,27.05
2022-08-17T04:12:04.860Z,26.00
2022-08-17T04:14:37.862Z,26.27
2022-08-17T04:17:18.803Z,25.80
2022-08-17T04:19:46.536Z,26.98
2022-08-17T04:22:32.258Z,26.80
2022-08-17T04:24:59.519Z,26.83
2022-08-17T04:27:25.928Z,25.88
2022-08-17T04:29:54.574Z,26.80
2022-08-17T04:33:04.252Z,26.80
2022-08-17T04:35:09.507Z,26.98
2022-08-17T04:37:35.944Z,27.98
2022-08-17T04:40:21.135Z,25.83
2022-08-17T04:42:59.989Z,28.52
2022-08-17T04:45:27.373Z,27.05
2022-08-17T04:47:59.011Z,27.02
2022-08-17T04:50:25.435Z,26.60
2022-08-17T04:52:51.961Z,27.35
2022-08-17T04:55:18.554Z,26.27
2022-08-17T04:57:45.234Z,27.53
2022-08-17T05:00:11.956Z,26.77
2022-08-17T05:02:49.611Z,26.17
2022-08-17T05:05:20.717Z,26.60
2022-08-17T05:07:47.387Z,26.40
2022-08-17T05:10:13.841Z,27.35
2022-08-17T05:12:40.280Z,28.10
2022-08-17T05:15:10.610Z,27.23
2022-08-17T05:17:37.032Z,25.33
2022-08-17T05:20:03.770Z,26.10
2022-08-17T05:22:31.313Z,25.63
2022-08-17T05:27:24.067Z,27.00
2022-08-17T05:29:54.363Z,25.88
2022-08-17T05:32:38.880Z,27.15
2022-08-17T05:35:06.934Z,28.25
2022-08-17T05:37:33.412Z,28.98
2022-08-17T05:39:59.963Z,29.20
2022-08-17T05:42:26.507Z,28.40
2022-08-17T05:44:52.928Z,29.30
2022-08-17T05:47:20.096Z,29.35
2022-08-17T05:49:48.870Z,29.33
2022-08-17T05:52:23.573Z,29.70
2022-08-17T05:54:52.874Z,29.60
2022-08-17T05:57:23.241Z,30.55
2022-08-17T05:59:49.628Z,29.73
2022-08-17T06:02:19.346Z,29.83
2022-08-17T06:05:11.919Z,29.38
2022-08-17T06:07:44.162Z,30.83
2022-08-17T06:10:37.204Z,29.42
2022-08-17T06:13:09.571Z,29.73
2022-08-17T06:15:42.198Z,29.23
2022-08-17T06:18:09.611Z,29.50
2022-08-17T06:23:05.680Z,28.75
2022-08-17T06:25:34.828Z,29.23
2022-08-17T06:28:13.895Z,29.10
2022-08-17T06:30:58.590Z,28.27
2022-08-17T06:33:29.768Z,28.88
2022-08-17T06:36:03.008Z,27.02
2022-08-17T06:38:50.043Z,25.85
2022-08-17T06:41:31.795Z,27.42
2022-08-17T06:44:10.160Z,27.27
2022-08-17T06:46:42.563Z,26.33
2022-08-17T06:49:13.895Z,26.58
2022-08-17T06:51:51.812Z,26.30
2022-08-17T06:54:24.420Z,25.05
2022-08-17T06:56:59.533Z,24.85
2022-08-17T06:59:54.156Z,24.98
2022-08-17T07:02:19.695Z,25.02
2022-08-17T07:04:56.310Z,24.67
2022-08-17T07:07:41.636Z,24.05
2022-08-17T07:10:08.747Z,22.52
2022-08-17T07:12:38.396Z,23.30
2022-08-17T07:15:20.103Z,22.13
2022-08-17T07:17:49.905Z,21.40
2022-08-17T07:20:18.016Z,21.58
2022-08-17T07:23:00.275Z,20.60
2022-08-17T07:25:28.588Z,20.25
2022-08-17T07:27:56.362Z,19.98
2022-08-17T07:30:25.546Z,18.92
2022-08-17T07:32:54.554Z,18.85
2022-08-17T07:35:23.140Z,18.08
2022-08-17T07:38:25.370Z,17.65
2022-08-17T07:41:05.214Z,16.30
2022-08-17T07:43:34.065Z,16.33
2022-08-17T07:46:21.623Z,17.00
2022-08-17T07:48:49.803Z,16.17
2022-08-17T07:51:35.389Z,16.25
2022-08-17T07:54:13.932Z,15.95
2022-08-17T07:56:46.240Z,15.75
2022-08-17T07:59:33.475Z,15.90
2022-08-17T08:02:03.825Z,15.32
2022-08-17T08:07:25.283Z,14.63
2022-08-17T08:10:04.422Z,14.95
2022-08-17T08:12:36.370Z,13.90
2022-08-17T08:15:02.776Z,14.85
2022-08-17T08:17:34.278Z,14.00
2022-08-17T08:20:00.923Z,13.18
2022-08-17T08:23:02.780Z,13.27
2022-08-17T08:25:29.217Z,14.30
2022-08-17T08:28:15.610Z,13.87
2022-08-17T08:30:47.291Z,14.50
2022-08-17T08:33:14.647Z,13.52
2022-08-17T08:38:26.796Z,13.15
2022-08-17T08:41:13.509Z,12.23
2022-08-17T08:44:00.725Z,12.38
2022-08-17T08:46:45.310Z,12.88
2022-08-17T08:49:12.513Z,13.13
2022-08-17T08:51:58.310Z,13.32
2022-08-17T08:54:28.201Z,12.65
2022-08-17T08:57:22.865Z,12.98
2022-08-17T09:00:02.088Z,13.60
2022-08-17T09:02:28.984Z,13.65
2022-08-17T09:05:14.209Z,12.57
2022-08-17T09:07:54.766Z,12.15
2022-08-17T09:10:30.163Z,12.23
2022-08-17T09:13:10.295Z,11.07
2022-08-17T09:15:48.396Z,10.60
2022-08-17T09:19:03.059Z,10.70
2022-08-17T09:21:13.154Z,10.65
2022-08-17T09:23:46.517Z,12.40
2022-08-17T09:26:16.233Z,12.00
2022-08-17T09:28:44.806Z,12.13
2022-08-17T09:31:12.886Z,12.00
2022-08-17T09:33:44.405Z,12.70
2022-08-17T09:36:14.804Z,12.90
2022-08-17T09:38:57.065Z,12.93
2022-08-17T09:41:49.261Z,13.32
2022-08-17T09:44:24.620Z,13.25
2022-08-17T09:46:53.479Z,13.40
2022-08-17T09:49:40.118Z,13.85
2022-08-17T09:52:19.022Z,12.32
2022-08-17T09:54:45.607Z,11.77
2022-08-17T09:57:31.390Z,12.90
2022-08-17T10:00:01.278Z,12.60
2022-08-17T10:02:41.912Z,13.85
2022-08-17T10:05:14.830Z,14.48
2022-08-17T10:07:41.235Z,14.98
2022-08-17T10:10:29.803Z,14.33
2022-08-17T10:12:58.876Z,14.43
2022-08-17T10:15:44.629Z,13.57
2022-08-17T10:18:11.020Z,12.82
2022-08-17T10:20:46.561Z,12.32
2022-08-17T10:23:44.803Z,12.32
2022-08-17T10:26:13.934Z,13.07
2022-08-17T10:28:43.588Z,12.77
2022-08-17T10:34:25.537Z,11.57
2022-08-17T10:36:52.432Z,11.40
2022-08-17T10:39:28.164Z,11.25
2022-08-17T10:41:56.652Z,11.35
2022-08-17T10:44:49.214Z,11.30
2022-08-17T10:47:16.846Z,11.30
2022-08-17T10:49:47.931Z,10.48
2022-08-17T10:52:20.356Z,11.02
2022-08-17T10:54:48.284Z,10.70
2022-08-17T10:57:26.772Z,10.65
2022-08-17T10:59:54.365Z,11.30
2022-08-17T11:02:27.013Z,11.48
2022-08-17T11:05:06.288Z,10.88
2022-08-17T11:07:38.564Z,10.43
2022-08-17T11:10:04.976Z,10.13
2022-08-17T11:12:31.373Z,11.23
2022-08-17T11:15:24.226Z,10.47
2022-08-17T11:17:50.651Z,11.00
2022-08-17T11:20:32.398Z,11.30
2022-08-17T11:23:18.382Z,11.05
2022-08-17T11:25:48.679Z,10.68
2022-08-17T11:28:19.237Z,9.57
2022-08-17T11:30:48.928Z,9.70
2022-08-17T11:33:38.103Z,9.82
2022-08-17T11:36:23.510Z,10.30
2022-08-17T11:39:08.627Z,9.30
2022-08-17T11:41:44.342Z,9.73
2022-08-17T11:44:18.088Z,9.55
2022-08-17T11:47:23.238Z,10.10
2022-08-17T11:50:08.341Z,9.82
2022-08-17T11:52:34.767Z,10.27
2022-08-17T11:55:24.072Z,10.23
2022-08-17T11:58:00.967Z,9.40
2022-08-17T12:00:41.185Z,9.25
2022-08-17T12:03:26.620Z,9.10
2022-08-17T12:06:01.737Z,9.48
2022-08-17T12:08:30.369Z,9.50
2022-08-17T12:11:02.773Z,9.35
2022-08-17T12:13:39.746Z,8.32
2022-08-17T12:16:07.232Z,8.50
2022-08-17T12:18:37.401Z,8.27
2022-08-17T12:21:06.837Z,7.88
2022-08-17T12:23:41.710Z,7.70
2022-08-17T12:26:14.184Z,7.90
2022-08-17T12:28:44.414Z,7.88
2022-08-17T12:31:14.156Z,7.63
2022-08-17T12:33:44.378Z,7.63
2022-08-17T12:36:15.050Z,8.13
2022-08-17T12:38:48.899Z,7.90
2022-08-17T12:41:29.020Z,7.07
2022-08-17T12:44:02.206Z,7.18
2022-08-17T12:46:30.286Z,7.10
2022-08-17T12:49:14.181Z,7.68
2022-08-17T12:51:45.334Z,7.80
2022-08-17T12:54:21.994Z,7.50
2022-08-17T12:56:48.433Z,7.13
2022-08-17T12:59:15.210Z,6.65
2022-08-17T13:01:56.717Z,5.72
2022-08-17T13:04:24.184Z,5.60
2022-08-17T13:06:59.847Z,5.75
2022-08-17T13:09:35.796Z,5.18
2022-08-17T13:12:07.739Z,5.80
2022-08-17T13:14:35.434Z,5.32
2022-08-17T13:17:06.318Z,4.82
2022-08-17T13:19:41.387Z,5.20
2022-08-17T13:22:10.799Z,4.45
2022-08-17T13:24:38.544Z,4.88
2022-08-17T13:27:07.976Z,5.68
2022-08-17T13:29:37.127Z,5.82
2022-08-17T13:32:11.610Z,3.92
2022-08-17T13:35:11.857Z,5.57
2022-08-17T13:37:35.239Z,4.53
2022-08-17T13:40:05.062Z,5.13
2022-08-17T13:42:52.695Z,4.80
2022-08-17T13:45:36.066Z,4.53
2022-08-17T13:48:08.424Z,5.35
2022-08-17T13:50:45.711Z,4.88
2022-08-17T13:53:23.068Z,4.63
2022-08-17T13:55:54.519Z,4.18
2022-08-17T13:58:22.816Z,4.57
2022-08-17T14:00:51.620Z,4.07
2022-08-17T14:03:19.042Z,4.00
2022-08-17T14:05:46.110Z,3.65
2022-08-17T14:08:13.887Z,3.38
2022-08-17T14:10:40.382Z,3.55
2022-08-17T14:13:07.439Z,3.58
2022-08-17T14:15:54.950Z,2.78
2022-08-17T14:18:52.004Z,2.83
2022-08-17T14:21:08.710Z,2.60
2022-08-17T14:23:35.366Z,2.53
2022-08-17T14:26:02.072Z,2.30
2022-08-17T14:28:28.651Z,2.35
2022-08-17T14:30:55.527Z,2.78
2022-08-17T14:33:22.734Z,2.67
2022-08-17T14:35:52.958Z,2.80
2022-08-17T14:38:20.177Z,2.22
2022-08-17T14:40:47.456Z,2.88
2022-08-17T14:43:15.841Z,2.70
2022-08-17T14:45:43.127Z,2.72
2022-08-17T14:48:09.692Z,2.90
2022-08-17T14:50:38.357Z,2.50
2022-08-17T14:53:06.009Z,2.58
2022-08-17T14:55:32.746Z,2.90
2022-08-17T14:57:59.261Z,2.90
2022-08-17T15:02:55.131Z,2.95
2022-08-17T15:05:22.885Z,3.10
2022-08-17T15:07:49.757Z,2.13
2022-08-17T15:10:16.734Z,2.28
2022-08-17T15:15:11.238Z,2.40
2022-08-17T15:17:43.950Z,2.38
2022-08-17T15:20:18.320Z,2.67
2022-08-17T15:22:45.805Z,2.28
2022-08-17T15:25:13.385Z,2.30
2022-08-17T15:27:40.401Z,2.80
2022-08-17T15:30:07.895Z,2.40
2022-08-17T15:32:36.008Z,2.35
2022-08-17T15:35:04.282Z,2.25
2022-08-17T15:37:32.079Z,2.08
2022-08-17T15:40:00.622Z,2.65
2022-08-17T15:42:27.324Z,2.90
2022-08-17T15:44:55.207Z,2.75
2022-08-17T15:47:22.354Z,2.58
2022-08-17T15:49:48.891Z,2.70
2022-08-17T15:52:16.830Z,2.85
2022-08-17T15:54:45.319Z,2.85
2022-08-17T15:57:13.053Z,2.63
2022-08-17T15:59:40.360Z,2.60
2022-08-17T16:03:20.362Z,2.90
2022-08-17T16:05:08.749Z,2.53
2022-08-17T16:07:37.347Z,3.00
2022-08-17T16:10:04.527Z,2.58
2022-08-17T16:12:30.937Z,2.70
2022-08-17T16:14:57.426Z,2.72
2022-08-17T16:17:39.072Z,2.40
2022-08-17T16:20:07.847Z,2.40
2022-08-17T16:22:36.092Z,2.90
2022-08-17T16:25:04.714Z,3.53
2022-08-17T16:27:31.145Z,3.63
2022-08-17T16:29:57.669Z,3.10
2022-08-17T16:32:31.826Z,3.22
2022-08-17T16:35:03.730Z,3.33
2022-08-17T16:37:30.928Z,3.35
2022-08-17T16:40:00.739Z,3.38
2022-08-17T16:42:28.940Z,3.05
2022-08-17T16:44:57.459Z,3.33
2022-08-17T16:47:23.916Z,3.30
2022-08-17T16:49:50.393Z,3.33
2022-08-17T16:52:32.547Z,3.38
2022-08-17T16:55:01.073Z,3.22
2022-08-17T16:57:28.145Z,3.28
2022-08-17T16:59:54.900Z,3.30
2022-08-17T17:02:36.459Z,3.33
2022-08-17T17:05:22.193Z,3.30
2022-08-17T17:08:01.057Z,3.08
2022-08-17T17:10:41.912Z,3.10
2022-08-17T17:13:11.032Z,2.97
2022-08-17T17:15:51.716Z,3.17
2022-08-17T17:18:20.084Z,3.28
2022-08-17T17:20:55.840Z,2.85
2022-08-17T17:23:30.313Z,3.45
2022-08-17T17:26:03.168Z,3.30
2022-08-17T17:28:40.524Z,2.90
2022-08-17T17:31:14.755Z,3.10
2022-08-17T17:33:48.867Z,3.05
2022-08-17T17:36:21.461Z,3.15
2022-08-17T17:38:49.969Z,2.85
2022-08-17T17:41:26.118Z,2.53
2022-08-17T17:43:56.388Z,2.72
2022-08-17T17:46:33.884Z,2.60
2022-08-17T17:49:00.475Z,2.42
2022-08-17T17:52:06.281Z,2.95
2022-08-17T17:54:55.525Z,3.13
2022-08-17T17:57:28.723Z,2.70
2022-08-17T17:59:58.344Z,2.95
2022-08-17T18:02:52.093Z,2.75
2022-08-17T18:05:37.349Z,2.33
2022-08-17T18:08:32.279Z,2.22
2022-08-17T18:11:23.950Z,2.30
2022-08-17T18:14:06.205Z,2.53
2022-08-17T18:16:34.101Z,2.45
2022-08-17T18:19:00.928Z,2.20
2022-08-17T18:21:38.252Z,2.22
2022-08-17T18:24:06.183Z,2.30
2022-08-17T18:26:32.640Z,2.05
2022-08-17T18:28:59.747Z,2.57
2022-08-17T18:31:26.536Z,2.70
2022-08-17T18:33:55.397Z,3.05
2022-08-17T18:36:30.829Z,2.58
2022-08-17T18:39:09.187Z,2.72
2022-08-17T18:41:40.677Z,2.25
2022-08-17T18:44:19.274Z,2.38
2022-08-17T18:46:45.740Z,2.20
2022-08-17T18:49:28.741Z,2.17
2022-08-17T18:52:08.784Z,2.55
2022-08-17T18:54:36.278Z,1.98
2022-08-17T18:57:03.566Z,2.25
2022-08-17T19:01:59.167Z,2.17
2022-08-17T19:04:34.023Z,2.53
2022-08-17T19:07:12.568Z,2.45
2022-08-17T19:09:42.318Z,2.22
2022-08-17T19:12:26.900Z,2.50
2022-08-17T19:14:55.956Z,2.30
2022-08-17T19:17:29.358Z,2.35
2022-08-17T19:20:01.743Z,1.88
2022-08-17T19:22:51.623Z,2.13
2022-08-17T19:25:21.812Z,2.20
2022-08-17T19:27:57.680Z,2.47
2022-08-17T19:30:25.094Z,2.13
2022-08-17T19:32:53.098Z,2.53
2022-08-17T19:35:22.112Z,2.25
2022-08-17T19:37:54.408Z,2.30
2022-08-17T19:40:51.629Z,2.33
2022-08-17T19:43:18.912Z,2.50
2022-08-17T19:46:11.728Z,2.38
2022-08-17T19:48:47.201Z,2.28
2022-08-17T19:51:40.946Z,2.03
2022-08-17T19:54:20.316Z,2.25
2022-08-17T19:56:47.510Z,2.60
2022-08-17T19:59:48.659Z,2.53
2022-08-17T20:02:15.089Z,2.15
2022-08-17T20:04:42.787Z,2.30
2022-08-17T20:07:15.164Z,2.33
2022-08-17T20:09:45.695Z,1.98
2022-08-17T20:12:19.556Z,2.17
2022-08-17T20:15:04.833Z,2.08
2022-08-17T20:17:34.936Z,2.50
2022-08-17T20:20:21.298Z,2.45
2022-08-17T20:22:53.686Z,2.53
2022-08-17T20:25:43.515Z,2.83
2022-08-17T20:28:30.575Z,2.38
2022-08-17T20:33:25.440Z,2.40
2022-08-17T20:36:09.987Z,2.67
2022-08-17T20:38:36.404Z,2.40
2022-08-17T20:41:03.849Z,2.80
2022-08-17T20:46:15.345Z,2.73
2022-08-17T20:48:44.547Z,2.60
2022-08-17T20:51:16.139Z,2.72
2022-08-17T20:53:48.423Z,3.05
2022-08-17T20:56:33.624Z,2.63
2022-08-17T20:59:00.813Z,2.97
2022-08-17T21:01:40.110Z,2.60
2022-08-17T21:04:08.603Z,2.60
2022-08-17T21:06:54.995Z,2.88
2022-08-17T21:09:28.581Z,3.13
2022-08-17T21:12:04.147Z,2.83
2022-08-17T21:14:34.399Z,2.83
2022-08-17T21:17:04.794Z,2.65
2022-08-17T21:20:07.715Z,2.72
2022-08-17T21:22:31.766Z,2.70
2022-08-17T21:25:11.676Z,2.83
2022-08-17T21:27:44.598Z,2.60
2022-08-17T21:30:21.923Z,3.00
2022-08-17T21:33:11.168Z,2.83
2022-08-17T21:35:58.780Z,2.55
2022-08-17T21:38:34.586Z,2.55
2022-08-17T21:41:01.369Z,2.63
2022-08-17T21:43:31.787Z,2.63
2022-08-17T21:45:58.293Z,2.88
2022-08-17T21:48:25.402Z,2.80
2022-08-17T21:50:57.994Z,2.47
2022-08-17T21:53:34.699Z,2.80
2022-08-17T21:56:01.209Z,2.80
2022-08-17T21:58:48.798Z,2.97
2022-08-17T22:01:20.657Z,2.70
2022-08-17T22:03:54.021Z,2.78
2022-08-17T22:06:22.300Z,3.20
2022-08-17T22:08:59.013Z,3.10
2022-08-17T22:11:25.472Z,2.78
2022-08-17T22:13:51.879Z,3.03
2022-08-17T22:16:28.381Z,2.58
2022-08-17T22:18:58.070Z,2.63
2022-08-17T22:21:25.226Z,3.00
2022-08-17T22:24:06.656Z,3.20
2022-08-17T22:26:51.905Z,2.45
2022-08-17T22:29:37.341Z,2.88
2022-08-17T22:32:03.855Z,2.85
2022-08-17T22:34:30.371Z,3.20
2022-08-17T22:37:15.300Z,3.17
2022-08-17T22:39:41.848Z,3.15
2022-08-17T22:42:13.657Z,3.20
2022-08-17T22:44:48.147Z,3.17
2022-08-17T22:47:14.522Z,3.42
2022-08-17T22:49:53.776Z,3.63
2022-08-17T22:52:35.132Z,2.80
2022-08-17T22:55:34.680Z,3.25
2022-08-17T22:58:20.050Z,3.03
2022-08-17T23:00:48.195Z,3.00
2022-08-17T23:03:19.495Z,3.15
2022-08-17T23:06:03.482Z,3.03
2022-08-17T23:08:30.380Z,3.40
2022-08-17T23:10:56.893Z,3.40
2022-08-17T23:13:23.458Z,3.33
2022-08-17T23:15:51.172Z,3.20
2022-08-17T23:18:17.814Z,3.53
2022-08-17T23:20:44.593Z,4.47
2022-08-17T23:23:12.148Z,3.20
2022-08-17T23:25:38.588Z,3.35
2022-08-17T23:28:05.700Z,3.72
2022-08-17T23:30:33.702Z,3.67
2022-08-17T23:33:03.340Z,3.72
2022-08-17T23:35:40.097Z,4.38
2022-08-17T23:38:08.191Z,3.65
2022-08-17T23:40:34.631Z,3.67
2022-08-17T23:43:01.065Z,3.90
2022-08-17T23:45:32.477Z,3.88
2022-08-17T23:47:58.887Z,4.53
2022-08-17T23:50:25.320Z,4.20
2022-08-17T23:52:56.518Z,4.15
2022-08-17T23:55:22.935Z,4.20
2022-08-17T23:57:50.012Z,4.28
